Time;durP1;ratioP1;P1;durP2;ratioP2;P2;SDS_P1;SDS_P2;PMS_P1;PMS_P2;Temp;Humidity;BMP_temperature;BMP_pressure;BME280_temperature;BME280_humidity;BME280_pressure;Samples;Min_cycle;Max_cycle;Signal;HPM_P1;HPM_P2
2024/03/14 00:00:50;;;;;;;8.02;3.20;;;;;;;18.52;47.86;101286.72;4980232;28;20053;-62
2024/03/14 00:03:16;;;;;;;4.55;3.33;;;;;;;18.49;48.01;101284.34;5014840;28;20017;-62
2024/03/14 00:05:41;;;;;;;5.15;3.42;;;;;;;18.52;47.84;101292.16;5014727;28;20048;-61
2024/03/14 00:08:07;;;;;;;5.30;3.10;;;;;;;18.51;47.64;101287.72;4996402;28;20481;-61
2024/03/14 00:10:33;;;;;;;7.22;3.85;;;;;;;18.50;48.06;101286.06;4996376;28;20029;-62
2024/03/14 00:12:58;;;;;;;7.03;3.63;;;;;;;18.47;48.05;101278.22;4996440;28;20028;-62
2024/03/14 00:15:23;;;;;;;4.45;2.97;;;;;;;18.49;47.68;101287.06;5013837;28;21069;-61
2024/03/14 00:17:49;;;;;;;4.53;3.10;;;;;;;18.45;47.40;101277.56;4980003;28;20046;-61
2024/03/14 00:20:15;;;;;;;4.68;2.83;;;;;;;18.47;47.85;101275.50;5013686;28;20037;-61
2024/03/14 00:22:41;;;;;;;3.05;2.55;;;;;;;18.44;47.30;101275.84;5013633;28;20034;-62
2024/03/14 00:25:09;;;;;;;6.05;2.78;;;;;;;18.44;48.36;101276.69;4980083;28;20026;-61
2024/03/14 00:27:44;;;;;;;7.32;3.95;;;;;;;18.42;48.12;101275.16;5013530;28;20037;-61
2024/03/14 00:30:16;;;;;;;5.10;2.80;;;;;;;18.40;48.55;101278.03;5013664;28;20505;-61
2024/03/14 00:32:41;;;;;;;7.10;2.63;;;;;;;18.40;48.36;101277.19;5013490;28;20117;-62
2024/03/14 00:35:08;;;;;;;5.57;2.67;;;;;;;18.40;47.81;101274.47;4995817;28;20121;-61
2024/03/14 00:37:35;;;;;;;7.65;2.67;;;;;;;18.39;47.78;101275.50;4996115;28;20084;-62
2024/03/14 00:40:00;;;;;;;3.35;2.42;;;;;;;18.40;48.02;101277.19;4996081;28;20058;-61
2024/03/14 00:42:26;;;;;;;3.83;2.13;;;;;;;18.40;48.30;101269.03;5013501;28;20073;-61
2024/03/14 00:44:52;;;;;;;4.00;2.42;;;;;;;18.40;47.81;101277.19;5012971;28;20041;-61
2024/03/14 00:47:18;;;;;;;3.15;2.55;;;;;;;18.39;48.01;101272.78;4995808;28;20030;-61
2024/03/14 00:49:43;;;;;;;5.75;2.17;;;;;;;18.36;47.96;101276.69;5013455;28;20045;-62
2024/03/14 00:52:09;;;;;;;5.50;2.58;;;;;;;18.39;47.86;101275.50;4980282;28;20033;-62
2024/03/14 00:54:35;;;;;;;3.03;2.28;;;;;;;18.38;48.34;101262.94;4996090;28;20046;-62
2024/03/14 00:57:02;;;;;;;5.40;2.10;;;;;;;18.36;48.44;101262.28;4980180;28;20030;-61
2024/03/14 00:59:27;;;;;;;5.40;2.40;;;;;;;18.36;48.04;101268.56;5016042;28;20037;-64
2024/03/14 01:01:54;;;;;;;3.40;1.85;;;;;;;18.34;48.31;101254.28;5000964;28;20033;-62
2024/03/14 01:04:20;;;;;;;4.78;2.10;;;;;;;18.37;47.39;101264.81;4999138;28;20087;-61
2024/03/14 01:06:45;;;;;;;4.03;2.30;;;;;;;18.33;48.26;101257.19;4997802;28;20026;-61
2024/03/14 01:09:11;;;;;;;2.50;1.73;;;;;;;18.32;47.68;101260.91;5014060;28;20041;-61
2024/03/14 01:11:36;;;;;;;3.22;2.03;;;;;;;18.30;48.09;101258.38;5013152;28;20468;-62
2024/03/14 01:14:02;;;;;;;3.55;1.88;;;;;;;18.30;47.81;101260.25;4995387;28;20513;-62
2024/03/14 01:16:27;;;;;;;5.00;2.53;;;;;;;18.26;47.19;101256.16;5012967;28;20037;-61
2024/03/14 01:18:53;;;;;;;4.47;2.00;;;;;;;18.24;47.51;101258.19;4979241;28;20057;-62
2024/03/14 01:21:20;;;;;;;3.80;2.20;;;;;;;18.16;48.06;101250.91;4995513;28;20498;-62
2024/03/14 01:23:45;;;;;;;4.55;1.60;;;;;;;18.16;47.56;101250.91;5012992;28;20037;-62
2024/03/14 01:26:10;;;;;;;4.75;2.35;;;;;;;18.13;47.86;101248.53;4995497;28;20042;-62
2024/03/14 01:28:36;;;;;;;5.10;2.20;;;;;;;18.13;47.78;101255.81;4995321;28;20030;-62
2024/03/14 01:31:02;;;;;;;4.43;2.15;;;;;;;18.10;47.79;101250.72;4995231;28;20444;-62
2024/03/14 01:33:28;;;;;;;4.10;2.20;;;;;;;18.08;48.14;101241.91;4995373;28;20038;-62
2024/03/14 01:35:58;;;;;;;2.88;1.70;;;;;;;18.07;47.75;101240.19;4995120;28;20502;-62
2024/03/14 01:38:23;;;;;;;3.13;2.03;;;;;;;18.04;47.85;101236.81;4995142;28;20030;-62
2024/03/14 01:40:49;;;;;;;3.45;2.22;;;;;;;18.00;47.93;101230.06;4979110;28;20036;-62
2024/03/14 01:43:14;;;;;;;4.80;2.13;;;;;;;17.98;48.30;101232.06;4996870;28;20053;-62
2024/03/14 01:45:42;;;;;;;3.70;2.13;;;;;;;17.97;47.71;101235.81;5012725;28;20061;-62
2024/03/14 01:48:08;;;;;;;4.22;2.00;;;;;;;17.96;47.84;101223.25;4995132;28;20042;-62
2024/03/14 01:50:33;;;;;;;5.13;2.22;;;;;;;17.94;47.75;101225.31;4995073;28;20033;-62
2024/03/14 01:52:59;;;;;;;3.53;2.70;;;;;;;17.95;48.21;101221.56;4995218;28;20046;-61
2024/03/14 01:55:24;;;;;;;5.47;1.98;;;;;;;17.97;48.22;101233.09;4995026;28;20065;-61
2024/03/14 01:57:50;;;;;;;3.05;1.70;;;;;;;17.98;48.24;101229.34;4998856;28;20037;-61
2024/03/14 02:00:18;;;;;;;7.93;2.20;;;;;;;17.97;47.73;101219.53;4998974;28;20034;-61
2024/03/14 02:02:47;;;;;;;3.95;2.55;;;;;;;17.97;48.38;101221.41;5016311;28;20111;-62
2024/03/14 02:05:18;;;;;;;6.32;2.25;;;;;;;17.98;48.27;101232.06;4982443;28;20165;-62
2024/03/14 02:07:45;;;;;;;3.67;2.08;;;;;;;17.97;48.11;101222.25;4998536;28;20060;-63
2024/03/14 02:10:13;;;;;;;3.78;2.30;;;;;;;17.98;48.66;101215.78;4998942;28;20030;-62
2024/03/14 02:12:39;;;;;;;3.25;2.40;;;;;;;17.99;48.27;101219.38;4982843;28;20084;-62
2024/03/14 02:15:06;;;;;;;2.95;1.60;;;;;;;17.97;47.56;101208.69;5016067;28;20190;-62
2024/03/14 02:17:31;;;;;;;3.72;2.55;;;;;;;18.02;47.96;101211.75;5016069;28;20052;-62
2024/03/14 02:19:57;;;;;;;5.70;2.13;;;;;;;17.97;48.13;101203.28;4982125;28;20525;-63
2024/03/14 02:22:22;;;;;;;4.63;2.22;;;;;;;17.96;48.19;101203.44;4982160;28;20054;-62
2024/03/14 02:24:51;;;;;;;4.22;2.10;;;;;;;17.96;48.16;101207.00;5016114;28;20033;-63
2024/03/14 02:27:16;;;;;;;3.10;2.50;;;;;;;17.97;48.15;101203.28;4998527;28;20030;-62
2024/03/14 02:29:42;;;;;;;3.95;2.05;;;;;;;17.96;47.89;101200.72;5015846;28;20037;-62
2024/03/14 02:32:07;;;;;;;4.57;2.38;;;;;;;17.95;48.32;101189.03;5017031;28;20037;-62
2024/03/14 02:34:34;;;;;;;6.03;2.53;;;;;;;17.95;47.85;101193.63;4998205;28;20557;-63
2024/03/14 02:36:59;;;;;;;2.47;1.77;;;;;;;17.94;48.51;101190.06;4998306;28;20461;-62
2024/03/14 02:39:26;;;;;;;5.80;2.13;;;;;;;17.94;48.39;101187.34;5015652;28;20030;-62
2024/03/14 02:41:52;;;;;;;4.18;2.22;;;;;;;17.92;47.87;101183.94;5015579;28;20030;-62
2024/03/14 02:44:18;;;;;;;3.67;2.13;;;;;;;17.88;48.45;101177.19;4981632;28;20038;-63
2024/03/14 02:46:44;;;;;;;6.55;2.42;;;;;;;17.89;48.11;101178.88;4997879;28;20113;-62
2024/03/14 02:49:11;;;;;;;2.42;1.88;;;;;;;17.87;47.55;101180.03;5015467;28;20029;-63
2024/03/14 02:51:37;;;;;;;3.08;1.83;;;;;;;17.83;47.77;101171.41;4997964;28;20076;-62
2024/03/14 02:54:05;;;;;;;1.98;1.75;;;;;;;17.84;48.30;101170.38;4981526;28;20034;-62
2024/03/14 02:56:31;;;;;;;3.45;1.77;;;;;;;17.85;48.07;101173.94;5015393;28;20056;-62
2024/03/14 02:58:56;;;;;;;3.88;1.65;;;;;;;17.82;47.87;101172.41;4997732;28;20041;-63
2024/03/14 03:01:22;;;;;;;2.35;1.70;;;;;;;17.86;48.16;101176.50;4997524;28;20042;-62
2024/03/14 03:03:47;;;;;;;5.00;2.03;;;;;;;17.83;47.95;101163.28;4997594;28;20506;-62
2024/03/14 03:06:13;;;;;;;3.25;1.95;;;;;;;17.83;48.59;101168.69;4997798;28;20441;-62
2024/03/14 03:08:38;;;;;;;7.20;2.60;;;;;;;17.82;48.21;101167.00;4997176;28;20040;-63
2024/03/14 03:11:04;;;;;;;2.22;1.60;;;;;;;17.80;48.98;101169.03;4997557;28;20112;-62
2024/03/14 03:13:29;;;;;;;3.58;1.58;;;;;;;17.78;48.63;101168.34;4981252;28;20069;-63
2024/03/14 03:15:54;;;;;;;2.63;1.60;;;;;;;17.80;48.13;101174.47;5015000;28;20030;-62
2024/03/14 03:18:20;;;;;;;1.52;1.42;;;;;;;17.77;48.24;101163.94;4997521;28;20141;-63
2024/03/14 03:20:45;;;;;;;3.45;1.75;;;;;;;17.77;48.86;101168.50;5015951;28;20030;-63
2024/03/14 03:23:12;;;;;;;2.78;1.85;;;;;;;17.77;47.83;101172.06;4997416;28;20026;-62
2024/03/14 03:25:38;;;;;;;3.45;1.90;;;;;;;17.76;48.19;101167.66;4997553;28;20121;-63
2024/03/14 03:28:09;;;;;;;1.83;1.60;;;;;;;17.77;48.09;101169.38;5014475;28;20121;-62
2024/03/14 03:30:34;;;;;;;1.73;1.42;;;;;;;17.78;48.16;101170.22;5014644;28;20053;-62
2024/03/14 03:33:00;;;;;;;2.30;1.50;;;;;;;17.79;48.06;101170.03;4980525;28;20058;-62
2024/03/14 03:35:25;;;;;;;4.13;1.45;;;;;;;17.78;47.71;101168.34;4980882;28;20488;-62
2024/03/14 03:37:51;;;;;;;4.72;1.63;;;;;;;17.75;48.25;101166.00;5014565;28;20069;-62
2024/03/14 03:40:22;;;;;;;3.22;1.45;;;;;;;17.76;48.62;101155.97;4996889;28;20122;-63
2024/03/14 03:42:48;;;;;;;4.10;1.65;;;;;;;17.71;48.23;101153.78;4980999;28;20497;-62
2024/03/14 03:45:14;;;;;;;2.70;1.40;;;;;;;17.72;48.33;101154.63;4996912;28;20034;-62
2024/03/14 03:47:40;;;;;;;3.95;1.77;;;;;;;17.70;48.41;101165.63;4980324;28;20037;-62
2024/03/14 03:50:11;;;;;;;2.72;1.77;;;;;;;17.69;48.01;101155.81;4996755;28;20030;-63
2024/03/14 03:52:39;;;;;;;2.28;1.60;;;;;;;17.66;47.86;101153.44;5013828;28;20057;-62
2024/03/14 03:55:05;;;;;;;3.63;1.80;;;;;;;17.61;47.80;101153.09;4996861;28;20409;-62
2024/03/14 03:57:34;;;;;;;2.67;1.23;;;;;;;17.59;48.44;101151.56;4996497;28;20025;-63
2024/03/14 04:00:07;;;;;;;2.17;1.40;;;;;;;17.54;48.48;101141.22;4996835;28;20022;-63
2024/03/14 04:02:32;;;;;;;3.13;1.63;;;;;;;17.52;48.57;101148.63;4997052;28;20030;-62
2024/03/14 04:04:57;;;;;;;2.42;1.52;;;;;;;17.49;48.62;101143.53;5015248;28;20018;-63
2024/03/14 04:07:28;;;;;;;2.97;1.45;;;;;;;17.47;48.25;101140.16;4997658;28;20025;-63
2024/03/14 04:09:54;;;;;;;4.55;1.17;;;;;;;17.46;48.51;101146.59;4998942;28;20033;-62
2024/03/14 04:12:19;;;;;;;2.33;1.30;;;;;;;17.47;48.32;101140.16;4998773;28;20029;-62
2024/03/14 04:14:45;;;;;;;4.32;1.60;;;;;;;17.47;48.75;101140.97;4999219;28;20022;-62
2024/03/14 04:17:11;;;;;;;4.45;1.65;;;;;;;17.48;48.69;101133.72;5017827;28;20029;-62
2024/03/14 04:19:37;;;;;;;3.33;1.85;;;;;;;17.48;48.76;101128.28;5000411;28;20065;-63
2024/03/14 04:22:04;;;;;;;2.33;1.88;;;;;;;17.45;48.22;101121.34;4999322;28;20393;-62
2024/03/14 04:24:32;;;;;;;2.85;1.50;;;;;;;17.43;48.30;101117.13;4980957;28;20034;-62
2024/03/14 04:26:58;;;;;;;2.47;1.75;;;;;;;17.41;48.43;101128.13;4996350;28;20057;-62
2024/03/14 04:29:26;;;;;;;2.20;1.90;;;;;;;17.40;48.70;101125.56;4979945;28;20034;-62
2024/03/14 04:31:51;;;;;;;4.00;1.70;;;;;;;17.38;48.84;101124.91;4996337;28;20455;-62
2024/03/14 04:34:17;;;;;;;2.42;1.65;;;;;;;17.34;48.33;101118.97;5013404;28;20057;-62
2024/03/14 04:36:42;;;;;;;2.75;1.50;;;;;;;17.34;48.36;101135.22;4996014;28;20041;-63
2024/03/14 04:39:09;;;;;;;3.25;2.17;;;;;;;17.35;48.43;101136.06;4995836;28;20030;-62
2024/03/14 04:41:35;;;;;;;1.70;1.50;;;;;;;17.34;48.56;101123.53;4995913;28;20120;-62
2024/03/14 04:44:03;;;;;;;4.20;1.80;;;;;;;17.37;48.21;101128.63;4996143;28;20063;-62
2024/03/14 04:46:29;;;;;;;2.60;1.83;;;;;;;17.36;48.74;101129.66;4995801;28;20026;-62
2024/03/14 04:48:54;;;;;;;1.95;1.55;;;;;;;17.39;48.40;101132.84;4979381;28;20408;-62
2024/03/14 04:51:20;;;;;;;2.28;1.70;;;;;;;17.36;48.00;101122.34;4995680;28;20548;-62
2024/03/14 04:53:46;;;;;;;2.08;1.52;;;;;;;17.35;48.86;101119.81;5013060;28;20041;-62
2024/03/14 04:56:11;;;;;;;6.55;1.42;;;;;;;17.32;48.17;101121.00;4995814;28;20069;-63
2024/03/14 04:58:40;;;;;;;6.85;2.55;;;;;;;17.34;48.44;101118.09;5014139;28;20109;-63
2024/03/14 05:01:05;;;;;;;4.25;1.50;;;;;;;17.30;48.43;101111.34;5013585;28;20034;-62
2024/03/14 05:03:30;;;;;;;3.58;1.33;;;;;;;17.28;48.95;101116.91;5013276;28;20087;-62
2024/03/14 05:05:56;;;;;;;1.85;1.15;;;;;;;17.27;47.99;101115.22;4979236;28;20045;-62
2024/03/14 05:08:22;;;;;;;2.92;1.55;;;;;;;17.29;48.02;101115.06;5013012;28;20497;-62
2024/03/14 05:10:47;;;;;;;1.33;1.23;;;;;;;17.29;48.22;101109.63;4995581;28;20053;-62
2024/03/14 05:13:13;;;;;;;3.25;1.63;;;;;;;17.29;48.79;101112.34;4995724;28;20057;-62
2024/03/14 05:15:38;;;;;;;2.83;1.55;;;;;;;17.27;48.72;101120.66;4995355;28;20026;-62
2024/03/14 05:18:05;;;;;;;1.45;1.35;;;;;;;17.27;48.32;101127.91;4979188;28;20057;-62
2024/03/14 05:20:31;;;;;;;1.33;1.20;;;;;;;17.25;47.84;101125.34;4995695;28;20027;-62
2024/03/14 05:22:57;;;;;;;2.08;1.85;;;;;;;17.24;48.19;101117.41;5012755;28;20041;-63
2024/03/14 05:25:23;;;;;;;2.30;1.60;;;;;;;17.22;48.61;101112.19;5013177;28;20452;-62
2024/03/14 05:27:49;;;;;;;3.15;1.40;;;;;;;17.19;48.32;101111.66;5012854;28;20042;-62
2024/03/14 05:30:17;;;;;;;1.88;1.38;;;;;;;17.20;48.96;101105.22;4980495;28;20400;-62
2024/03/14 05:32:44;;;;;;;1.55;1.42;;;;;;;17.18;48.49;101107.25;5016935;28;20434;-62
2024/03/14 05:35:10;;;;;;;2.25;1.55;;;;;;;17.18;48.26;101104.53;4983210;28;20030;-63
2024/03/14 05:37:36;;;;;;;2.05;1.40;;;;;;;17.15;48.38;101104.88;5016894;28;20037;-62
2024/03/14 05:40:01;;;;;;;3.15;1.95;;;;;;;17.13;47.96;101104.19;4999193;28;20038;-62
2024/03/14 05:42:26;;;;;;;4.10;1.65;;;;;;;17.09;48.68;101103.66;4999118;28;20550;-62
2024/03/14 05:44:55;;;;;;;3.88;1.40;;;;;;;17.08;48.08;101106.53;5016772;28;20034;-62
2024/03/14 05:47:20;;;;;;;3.50;1.50;;;;;;;17.07;48.29;101104.84;4984007;28;20402;-62
2024/03/14 05:49:46;;;;;;;1.67;1.38;;;;;;;17.04;48.39;101107.88;4999937;28;20040;-62
2024/03/14 05:52:12;;;;;;;4.70;1.83;;;;;;;17.02;48.02;101101.78;4999050;28;20104;-66
2024/03/14 05:54:38;;;;;;;2.70;1.42;;;;;;;17.02;48.15;101107.19;4995443;28;20066;-65
2024/03/14 05:57:04;;;;;;;3.92;1.50;;;;;;;17.00;48.69;101109.22;4979431;28;20117;-66
2024/03/14 05:59:29;;;;;;;4.30;1.63;;;;;;;17.01;49.00;101110.91;4996886;28;20117;-65
2024/03/14 06:01:55;;;;;;;1.55;1.30;;;;;;;16.99;48.55;101112.94;4979267;28;20030;-66
2024/03/14 06:04:23;;;;;;;2.75;1.10;;;;;;;17.02;49.12;101112.59;4978199;28;20045;-65
2024/03/14 06:06:48;;;;;;;3.95;1.38;;;;;;;17.04;48.25;101116.00;4995559;28;20110;-66
2024/03/14 06:09:15;;;;;;;1.90;1.27;;;;;;;17.07;48.25;101115.66;4996958;28;20038;-66
2024/03/14 06:11:42;;;;;;;2.22;1.60;;;;;;;17.09;48.55;101110.94;4979065;28;20384;-67
2024/03/14 06:14:07;;;;;;;4.20;2.10;;;;;;;17.14;48.48;101111.31;4979127;28;20038;-66
2024/03/14 06:16:32;;;;;;;4.10;1.17;;;;;;;17.15;48.99;101107.56;4995203;28;20055;-66
2024/03/14 06:19:01;;;;;;;2.42;1.63;;;;;;;17.16;48.56;101103.88;4996500;28;20054;-66
2024/03/14 06:21:26;;;;;;;1.95;1.35;;;;;;;17.20;48.24;101110.63;4995246;28;20040;-66
2024/03/14 06:23:51;;;;;;;2.40;1.40;;;;;;;17.24;48.54;101109.28;4996198;28;20034;-66
2024/03/14 06:26:17;;;;;;;1.40;1.25;;;;;;;17.26;48.13;101104.56;4994977;28;20031;-65
2024/03/14 06:28:43;;;;;;;3.47;1.83;;;;;;;17.27;48.17;101096.28;4995064;28;20058;-66
2024/03/14 06:31:09;;;;;;;2.50;1.52;;;;;;;17.32;48.43;101103.91;4994843;28;20088;-66
2024/03/14 06:33:35;;;;;;;3.33;1.60;;;;;;;17.34;48.08;101099.16;4996151;28;20391;-66
2024/03/14 06:36:00;;;;;;;2.17;1.58;;;;;;;17.34;48.40;101107.28;4996219;28;20034;-66
2024/03/14 06:38:25;;;;;;;3.78;1.98;;;;;;;17.41;48.58;101111.03;4995694;28;20030;-66
2024/03/14 06:40:52;;;;;;;3.25;1.83;;;;;;;17.46;47.42;101117.63;4994684;28;20510;-66
2024/03/14 06:43:19;;;;;;;3.00;1.83;;;;;;;17.53;48.49;101116.97;4994100;28;20575;-66
2024/03/14 06:45:45;;;;;;;3.17;1.25;;;;;;;17.55;48.10;101114.97;4978697;28;20035;-66
2024/03/14 06:48:10;;;;;;;2.03;1.42;;;;;;;17.55;47.59;101110.41;4978318;28;20043;-66
2024/03/14 06:50:35;;;;;;;1.98;1.60;;;;;;;17.55;47.38;101110.41;4994617;28;20030;-66
2024/03/14 06:53:02;;;;;;;5.03;1.60;;;;;;;17.62;47.81;101116.84;4994750;28;20038;-66
2024/03/14 06:55:28;;;;;;;2.20;1.55;;;;;;;17.66;47.48;101120.91;5007878;28;20509;-67
2024/03/14 06:57:53;;;;;;;2.38;1.73;;;;;;;17.66;47.42;101112.78;4981359;28;20124;-66
2024/03/14 07:00:22;;;;;;;1.55;1.40;;;;;;;17.76;47.99;101127.00;5001804;28;20036;-63
2024/03/14 07:02:48;;;;;;;2.85;1.70;;;;;;;17.80;47.91;101120.25;5015175;28;20037;-61
2024/03/14 07:05:15;;;;;;;1.75;1.40;;;;;;;17.93;47.53;101126.00;4981373;28;20045;-62
2024/03/14 07:07:46;;;;;;;3.53;2.28;;;;;;;18.10;47.23;101126.00;4997690;28;20041;-62
2024/03/14 07:10:16;;;;;;;2.47;1.63;;;;;;;18.30;47.04;101121.91;4981632;28;20513;-62
2024/03/14 07:12:42;;;;;;;2.72;1.90;;;;;;;18.47;47.09;101118.16;4981711;28;20040;-62
2024/03/14 07:15:08;;;;;;;2.20;1.40;;;;;;;18.60;47.46;101121.19;4997620;28;20401;-62
2024/03/14 07:17:34;;;;;;;3.58;1.73;;;;;;;18.59;47.48;101117.63;4997332;28;20022;-61
2024/03/14 07:20:05;;;;;;;4.47;1.92;;;;;;;18.55;47.00;101110.03;4998219;28;20117;-63
2024/03/14 07:22:31;;;;;;;2.40;1.80;;;;;;;18.57;46.86;101118.81;5000047;28;20034;-62
2024/03/14 07:24:56;;;;;;;3.42;1.75;;;;;;;18.64;46.46;101119.84;5017266;28;20052;-62
2024/03/14 07:27:22;;;;;;;2.10;1.88;;;;;;;18.78;46.43;101116.41;5017269;28;20537;-62
2024/03/14 07:29:47;;;;;;;3.55;1.95;;;;;;;18.78;47.11;101121.84;5017014;28;20030;-64
2024/03/14 07:32:14;;;;;;;4.28;1.98;;;;;;;18.86;46.22;101113.66;4998124;28;20026;-62
2024/03/14 07:34:44;;;;;;;3.08;1.55;;;;;;;18.87;46.89;101115.31;5014602;28;20121;-61
2024/03/14 07:37:10;;;;;;;3.35;1.67;;;;;;;18.86;46.64;101102.78;4997654;28;20048;-62
2024/03/14 07:39:35;;;;;;;1.88;1.27;;;;;;;18.89;46.82;101107.88;4996894;28;20573;-62
2024/03/14 07:42:02;;;;;;;2.80;1.50;;;;;;;18.98;46.37;101106.78;4996678;28;20417;-62
2024/03/14 07:44:27;;;;;;;1.27;1.02;;;;;;;19.16;46.35;101111.97;5014355;28;20030;-62
2024/03/14 07:46:52;;;;;;;7.88;1.73;;;;;;;19.37;45.76;101108.66;4996978;28;20033;-62
2024/03/14 07:49:18;;;;;;;1.63;1.20;;;;;;;19.38;45.87;101108.47;5014197;28;20057;-62
2024/03/14 07:51:43;;;;;;;3.00;1.60;;;;;;;19.40;45.70;101116.47;4996901;28;20034;-62
2024/03/14 07:54:14;;;;;;;3.03;1.77;;;;;;;19.54;46.28;101123.84;4995718;28;20045;-62
2024/03/14 07:56:39;;;;;;;4.88;1.77;;;;;;;19.81;45.59;101115.16;5013894;28;20034;-65
2024/03/14 07:59:05;;;;;;;4.35;2.05;;;;;;;20.13;45.21;101119.47;4996717;28;20366;-64
2024/03/14 08:01:33;;;;;;;3.80;1.75;;;;;;;20.29;45.69;101120.22;4980368;28;20071;-63
2024/03/14 08:04:00;;;;;;;4.55;1.92;;;;;;;20.44;44.73;101117.47;4980530;28;20509;-62
2024/03/14 08:06:27;;;;;;;3.97;2.00;;;;;;;20.76;44.90;101111.69;4996569;28;20048;-62
2024/03/14 08:08:53;;;;;;;3.78;2.22;;;;;;;20.91;44.58;101107.06;4996208;28;20061;-62
2024/03/14 08:11:21;;;;;;;6.78;2.13;;;;;;;20.87;45.07;101115.81;4980233;28;20104;-65
2024/03/14 08:13:47;;;;;;;4.18;1.70;;;;;;;20.88;44.75;101115.59;5013816;28;20470;-64
2024/03/14 08:16:18;;;;;;;3.38;1.58;;;;;;;20.95;44.40;101110.25;4996238;28;20076;-64
2024/03/14 08:18:44;;;;;;;5.75;2.15;;;;;;;21.00;44.51;101110.53;4980830;28;20014;-64
2024/03/14 08:21:12;;;;;;;4.18;1.90;;;;;;;21.14;44.39;101112.41;4996171;28;20516;-64
2024/03/14 08:23:40;;;;;;;3.80;1.63;;;;;;;21.24;44.76;101104.81;4996063;28;20033;-65
2024/03/14 08:26:07;;;;;;;1.90;1.38;;;;;;;21.26;43.99;101116.34;4996125;28;20112;-64
2024/03/14 08:28:32;;;;;;;4.18;1.30;;;;;;;21.29;44.39;101115.97;4979759;28;20515;-64
2024/03/14 08:31:00;;;;;;;3.85;1.75;;;;;;;21.27;43.70;101115.28;4979762;28;20046;-64
2024/03/14 08:33:26;;;;;;;1.95;1.10;;;;;;;21.22;44.28;101106.84;4996258;28;20037;-64
2024/03/14 08:35:52;;;;;;;1.92;1.33;;;;;;;21.21;44.34;101104.34;5013484;28;20038;-64
2024/03/14 08:38:21;;;;;;;1.63;1.05;;;;;;;21.29;44.18;101123.28;4979896;28;20385;-64
2024/03/14 08:40:47;;;;;;;1.95;1.30;;;;;;;21.41;43.61;101117.13;4979659;28;20108;-65
2024/03/14 08:43:12;;;;;;;3.05;1.42;;;;;;;21.50;43.29;101109.69;5013668;28;20061;-64
2024/03/14 08:45:38;;;;;;;1.83;1.25;;;;;;;21.60;43.58;101104.78;4996092;28;20030;-64
2024/03/14 08:48:11;;;;;;;3.78;1.17;;;;;;;21.68;43.64;101111.97;4980014;28;20042;-65
2024/03/14 08:50:40;;;;;;;4.25;1.45;;;;;;;21.62;43.78;101110.03;4997595;28;20034;-64
2024/03/14 08:53:09;;;;;;;3.05;1.27;;;;;;;21.64;43.41;101100.63;4996633;28;20130;-64
2024/03/14 08:55:37;;;;;;;3.42;1.20;;;;;;;21.85;43.08;101118.88;4979705;28;20038;-68
2024/03/14 08:58:03;;;;;;;2.80;1.20;;;;;;;21.95;42.51;101119.41;4996103;28;20504;-64
2024/03/14 09:00:31;;;;;;;5.38;1.33;;;;;;;22.04;42.70;101102.72;4995620;28;20026;-64
2024/03/14 09:02:59;;;;;;;1.60;1.20;;;;;;;22.33;42.05;101098.97;5013163;28;20036;-64
2024/03/14 09:05:25;;;;;;;3.42;1.33;;;;;;;22.73;42.13;101091.03;4996689;28;20466;-65
2024/03/14 09:07:51;;;;;;;2.88;1.65;;;;;;;23.23;41.52;101087.06;5013469;28;20063;-65
2024/03/14 09:10:16;;;;;;;2.05;1.42;;;;;;;23.47;41.58;101087.38;5013250;28;20445;-65
2024/03/14 09:12:43;;;;;;;2.47;1.30;;;;;;;23.62;41.65;101077.09;4995639;28;20061;-65
2024/03/14 09:15:09;;;;;;;1.30;1.08;;;;;;;23.49;41.14;101082.53;5013355;28;20065;-65
2024/03/14 09:17:35;;;;;;;5.60;1.17;;;;;;;23.73;41.04;101079.19;4995510;28;20446;-65
2024/03/14 09:20:00;;;;;;;2.45;1.00;;;;;;;24.12;40.85;101083.88;4995446;28;20057;-64
2024/03/14 09:22:26;;;;;;;6.05;1.58;;;;;;;24.53;40.53;101075.41;4995563;28;20100;-62
2024/03/14 09:24:52;;;;;;;3.13;1.40;;;;;;;24.91;40.19;101072.78;5013115;28;20037;-63
2024/03/14 09:27:18;;;;;;;4.03;1.38;;;;;;;25.28;39.74;101068.41;4995243;28;20408;-62
2024/03/14 09:29:43;;;;;;;2.13;1.58;;;;;;;25.46;39.50;101071.25;4995759;28;20054;-62
2024/03/14 09:32:09;;;;;;;1.80;1.63;;;;;;;25.57;39.64;101073.34;4995397;28;20442;-62
2024/03/14 09:34:38;;;;;;;3.08;1.88;;;;;;;25.86;39.34;101071.84;4995115;28;20440;-63
2024/03/14 09:37:03;;;;;;;4.45;1.20;;;;;;;26.25;39.10;101060.53;5012804;28;20128;-62
2024/03/14 09:39:35;;;;;;;2.13;1.33;;;;;;;26.66;38.79;101067.31;5012530;28;20397;-63
2024/03/14 09:42:01;;;;;;;2.83;1.52;;;;;;;26.99;38.42;101060.38;4996088;28;20034;-65
2024/03/14 09:44:27;;;;;;;4.10;1.35;;;;;;;27.16;37.64;101055.09;4979043;28;20040;-64
2024/03/14 09:47:02;;;;;;;5.38;1.50;;;;;;;27.50;37.50;101059.09;4995137;28;20041;-64
2024/03/14 09:49:28;;;;;;;2.55;1.30;;;;;;;29.07;34.96;101059.00;4978603;28;20061;-63
2024/03/14 09:51:53;;;;;;;2.10;1.80;;;;;;;29.18;34.94;101049.00;4995085;28;20026;-64
2024/03/14 09:54:20;;;;;;;1.80;1.35;;;;;;;29.25;35.27;101050.59;4994760;28;20520;-65
2024/03/14 09:56:45;;;;;;;3.67;1.00;;;;;;;29.11;35.82;101038.13;4995164;28;20038;-65
2024/03/14 09:59:11;;;;;;;2.22;1.20;;;;;;;28.71;36.47;101045.53;5012551;28;20543;-64
2024/03/14 10:01:43;;;;;;;1.92;1.17;;;;;;;28.59;35.38;101053.81;4995078;28;20401;-64
2024/03/14 10:04:11;;;;;;;3.60;1.27;;;;;;;28.82;35.62;101050.19;4995233;28;20440;-63
2024/03/14 10:06:40;;;;;;;2.05;1.05;;;;;;;28.46;35.84;101050.47;4978601;28;20519;-65
2024/03/14 10:09:12;;;;;;;4.38;1.20;;;;;;;27.92;36.20;101046.13;4995083;28;20041;-65
2024/03/14 10:11:38;;;;;;;1.88;1.40;;;;;;;28.45;35.33;101046.06;4979342;28;20041;-65
2024/03/14 10:14:16;;;;;;;2.50;1.00;;;;;;;28.49;34.99;101047.22;5012324;28;20034;-65
2024/03/14 10:16:43;;;;;;;1.48;1.23;;;;;;;28.26;35.50;101048.06;4980068;28;20525;-65
2024/03/14 10:19:08;;;;;;;1.35;1.00;;;;;;;28.28;35.80;101049.50;4998412;28;20030;-65
2024/03/14 10:21:34;;;;;;;2.15;1.00;;;;;;;27.91;36.08;101061.81;5015699;28;20057;-65
2024/03/14 10:23:59;;;;;;;1.95;1.02;;;;;;;28.30;34.58;101052.88;4998223;28;20038;-65
2024/03/14 10:26:24;;;;;;;5.63;1.23;;;;;;;28.82;34.46;101051.03;4998165;28;20501;-65
2024/03/14 10:28:50;;;;;;;1.40;1.25;;;;;;;29.54;34.19;101039.53;4998130;28;20413;-66
2024/03/14 10:31:15;;;;;;;2.92;1.52;;;;;;;29.77;33.76;101042.97;5015693;28;20057;-65
2024/03/14 10:33:41;;;;;;;2.08;0.90;;;;;;;29.72;33.86;101040.13;4981852;28;20066;-65
2024/03/14 10:36:10;;;;;;;3.90;1.50;;;;;;;30.11;33.19;101043.00;4981847;28;20164;-65
2024/03/14 10:38:37;;;;;;;3.83;1.20;;;;;;;30.35;32.31;101037.00;4998000;28;20061;-66
2024/03/14 10:41:12;;;;;;;3.88;0.80;;;;;;;30.62;32.48;101033.53;4981781;28;20473;-65
2024/03/14 10:43:39;;;;;;;2.05;1.55;;;;;;;30.84;32.05;101028.84;5000702;28;20029;-68
2024/03/14 10:46:15;;;;;;;28.10;2.63;;;;;;;31.05;32.33;101025.25;4998455;28;20030;-66
2024/03/14 10:48:44;;;;;;;3.22;1.05;;;;;;;31.32;32.08;101023.38;4997638;28;20045;-66
2024/03/14 10:51:12;;;;;;;2.08;1.15;;;;;;;31.65;31.45;101020.41;4998303;28;20558;-65
2024/03/14 10:53:39;;;;;;;1.95;0.98;;;;;;;31.87;31.74;101016.69;4997648;28;20161;-66
2024/03/14 10:56:12;;;;;;;2.85;1.00;;;;;;;31.98;30.44;101001.81;4981524;28;20034;-66
2024/03/14 10:58:38;;;;;;;1.02;0.90;;;;;;;32.08;31.20;100999.97;4997564;28;20030;-66
2024/03/14 11:01:04;;;;;;;1.15;0.88;;;;;;;32.19;31.37;101009.22;4981319;28;20386;-66
2024/03/14 11:03:31;;;;;;;1.20;1.10;;;;;;;32.36;30.05;100998.75;4981237;28;20112;-66
2024/03/14 11:05:57;;;;;;;1.67;0.88;;;;;;;32.51;30.84;100990.50;4997886;28;20034;-66
2024/03/14 11:08:26;;;;;;;0.93;0.73;;;;;;;32.67;30.03;100980.34;4997448;28;20037;-64
2024/03/14 11:10:55;;;;;;;2.42;1.08;;;;;;;32.84;30.80;100967.91;4997390;28;20034;-66
2024/03/14 11:13:26;;;;;;;1.58;1.25;;;;;;;33.02;29.28;100971.31;4997522;28;20044;-65
2024/03/14 11:15:54;;;;;;;1.38;0.85;;;;;;;33.16;29.98;100959.44;4997323;28;20153;-64
2024/03/14 11:18:22;;;;;;;3.60;1.38;;;;;;;33.39;29.08;100953.31;4997683;28;20037;-64
2024/03/14 11:20:50;;;;;;;2.42;1.80;;;;;;;33.58;30.34;100961.16;4997375;28;20054;-64